createdAt,value
2023-11-01T00:00:02.729Z,12.00
2023-11-01T00:01:02.717Z,11.97
2023-11-01T00:02:02.702Z,11.95
2023-11-01T00:03:02.744Z,11.97
2023-11-01T00:04:02.686Z,12.00
2023-11-01T00:05:02.661Z,11.95
2023-11-01T00:06:02.651Z,11.94
2023-11-01T00:07:02.638Z,11.91
2023-11-01T00:08:02.596Z,11.95
2023-11-01T00:09:02.588Z,11.88
2023-11-01T00:10:02.610Z,11.90
2023-11-01T00:11:02.552Z,11.90
2023-11-01T00:12:02.560Z,11.88
2023-11-01T00:13:02.526Z,11.87
2023-11-01T00:14:02.533Z,11.87
2023-11-01T00:15:02.516Z,11.84
2023-11-01T00:16:02.491Z,11.83
2023-11-01T00:17:02.479Z,11.84
2023-11-01T00:18:02.547Z,11.83
2023-11-01T00:19:02.461Z,11.87
2023-11-01T00:20:02.442Z,11.87
2023-11-01T00:21:02.425Z,11.84
2023-11-01T00:22:02.414Z,11.84
2023-11-01T00:23:02.412Z,11.84
2023-11-01T00:24:02.413Z,11.88
2023-11-01T00:25:02.364Z,11.90
2023-11-01T00:26:02.353Z,11.90
2023-11-01T00:27:02.337Z,11.94
2023-11-01T00:28:02.328Z,11.94
2023-11-01T00:29:02.337Z,11.97
2023-11-01T00:30:02.307Z,11.99
2023-11-01T00:31:02.288Z,12.00
2023-11-01T00:32:02.273Z,12.04
2023-11-01T00:33:02.354Z,12.07
2023-11-01T00:34:02.313Z,12.10
2023-11-01T00:35:02.242Z,12.09
2023-11-01T00:36:02.244Z,12.06
2023-11-01T00:37:02.260Z,12.07
2023-11-01T00:38:02.209Z,12.09
2023-11-01T00:39:02.196Z,12.06
2023-11-01T00:40:02.175Z,12.04
2023-11-01T00:41:02.151Z,12.09
2023-11-01T00:42:02.158Z,12.17
2023-11-01T00:43:02.152Z,12.17
2023-11-01T00:44:02.125Z,12.27
2023-11-01T00:45:02.104Z,12.25
2023-11-01T00:46:02.085Z,12.24
2023-11-01T00:47:02.111Z,12.21
2023-11-01T00:48:02.155Z,12.24
2023-11-01T00:49:02.052Z,12.29
2023-11-01T00:50:02.039Z,12.31
2023-11-01T00:51:02.026Z,12.32
2023-11-01T00:52:02.023Z,12.37
2023-11-01T00:53:02.015Z,12.36
2023-11-01T00:54:01.991Z,12.31
2023-11-01T00:55:01.990Z,12.35
2023-11-01T00:56:01.962Z,12.28
2023-11-01T00:57:01.971Z,12.35
2023-11-01T00:58:01.924Z,12.32
2023-11-01T00:59:01.906Z,12.36
2023-11-01T01:00:01.940Z,12.35
2023-11-01T01:01:03.417Z,12.32
2023-11-01T01:02:01.888Z,12.36
2023-11-01T01:03:02.024Z,12.42
2023-11-01T01:04:01.961Z,12.42
2023-11-01T01:05:01.826Z,12.40
2023-11-01T01:06:01.829Z,12.39
2023-11-01T01:07:01.819Z,12.40
2023-11-01T01:08:01.834Z,12.43
2023-11-01T01:09:01.781Z,12.39
2023-11-01T01:10:01.773Z,12.42
2023-11-01T01:11:01.807Z,12.40
2023-11-01T01:12:01.740Z,12.43
2023-11-01T01:13:01.723Z,12.43
2023-11-01T01:14:01.720Z,12.46
2023-11-01T01:15:01.697Z,12.46
2023-11-01T01:16:01.726Z,12.45
2023-11-01T01:17:01.715Z,12.45
2023-11-01T01:18:01.773Z,12.40
2023-11-01T01:19:01.642Z,12.42
2023-11-01T01:20:01.687Z,12.42
2023-11-01T01:21:01.643Z,12.46
2023-11-01T01:22:01.605Z,12.47
2023-11-01T01:23:01.615Z,12.42
2023-11-01T01:24:01.585Z,12.40
2023-11-01T01:25:01.597Z,12.39
2023-11-01T01:26:01.547Z,12.39
2023-11-01T01:27:01.573Z,12.40
2023-11-01T01:28:01.530Z,12.37
2023-11-01T01:29:01.531Z,12.42
2023-11-01T01:30:01.521Z,12.45
2023-11-01T01:31:01.497Z,12.45
2023-11-01T01:32:01.468Z,12.45
2023-11-01T01:33:01.478Z,12.40
2023-11-01T01:34:01.470Z,12.45
2023-11-01T01:35:01.566Z,12.45
2023-11-01T01:36:01.459Z,12.40
2023-11-01T01:37:01.409Z,12.47
2023-11-01T01:38:01.422Z,12.40
2023-11-01T01:39:01.487Z,12.45
2023-11-01T01:40:01.384Z,12.47
2023-11-01T01:41:01.355Z,12.46
2023-11-01T01:42:01.345Z,12.43
2023-11-01T01:43:01.429Z,12.47
2023-11-01T01:44:01.425Z,12.40
2023-11-01T01:45:01.318Z,12.43
2023-11-01T01:46:01.342Z,12.49
2023-11-01T01:47:01.272Z,12.47
2023-11-01T01:48:01.370Z,12.49
2023-11-01T01:49:01.268Z,12.47
2023-11-01T01:50:01.236Z,12.42
2023-11-01T01:51:01.230Z,12.45
2023-11-01T01:52:01.204Z,12.47
2023-11-01T01:53:01.201Z,12.47
2023-11-01T01:54:01.201Z,12.47
2023-11-01T01:55:01.180Z,12.46
2023-11-01T01:56:01.150Z,12.45
2023-11-01T01:57:01.142Z,12.46
2023-11-01T01:58:01.170Z,12.50
2023-11-01T01:59:01.211Z,12.47
2023-11-01T02:00:01.098Z,12.46
2023-11-01T02:01:01.161Z,12.45
2023-11-01T02:02:01.164Z,12.47
2023-11-01T02:03:01.112Z,12.45
2023-11-01T02:04:01.044Z,12.45
2023-11-01T02:05:01.042Z,12.42
2023-11-01T02:06:01.030Z,12.42
2023-11-01T02:07:01.010Z,12.45
2023-11-01T02:08:01.246Z,12.47
2023-11-01T02:09:00.998Z,12.45
2023-11-01T02:10:00.965Z,12.45
2023-11-01T02:11:00.960Z,12.46
2023-11-01T02:12:00.942Z,12.46
2023-11-01T02:13:00.945Z,12.45
2023-11-01T02:14:00.919Z,12.49
2023-11-01T02:15:00.927Z,12.45
2023-11-01T02:16:00.973Z,12.47
2023-11-01T02:17:00.897Z,12.46
2023-11-01T02:18:00.979Z,12.45
2023-11-01T02:19:00.853Z,12.40
2023-11-01T02:20:00.840Z,12.37
2023-11-01T02:21:00.834Z,12.40
2023-11-01T02:22:00.824Z,12.36
2023-11-01T02:23:00.797Z,12.39
2023-11-01T02:24:00.796Z,12.39
2023-11-01T02:25:00.772Z,12.36
2023-11-01T02:26:00.756Z,12.29
2023-11-01T02:27:00.764Z,12.35
2023-11-01T02:28:00.737Z,12.31
2023-11-01T02:29:00.728Z,12.25
2023-11-01T02:30:00.711Z,12.29
2023-11-01T02:31:00.738Z,12.28
2023-11-01T02:32:00.699Z,12.24
2023-11-01T02:33:00.801Z,12.28
2023-11-01T02:34:00.662Z,12.31
2023-11-01T02:35:00.640Z,12.28
2023-11-01T02:36:00.643Z,12.31
2023-11-01T02:37:00.610Z,12.29
2023-11-01T02:38:00.604Z,12.31
2023-11-01T02:39:00.607Z,12.31
2023-11-01T02:40:00.577Z,12.29
2023-11-01T02:41:00.582Z,12.28
2023-11-01T02:42:00.597Z,12.25
2023-11-01T02:43:00.535Z,12.27
2023-11-01T02:44:00.538Z,12.24
2023-11-01T02:45:00.507Z,12.27
2023-11-01T02:46:00.714Z,12.24
2023-11-01T02:47:00.501Z,12.25
2023-11-01T02:48:00.508Z,12.21
2023-11-01T02:49:00.456Z,12.21
2023-11-01T02:50:00.499Z,12.27
2023-11-01T02:51:00.445Z,12.24
2023-11-01T02:52:00.412Z,12.22
2023-11-01T02:53:00.401Z,12.24
2023-11-01T02:54:00.402Z,12.24
2023-11-01T02:55:00.400Z,12.25
2023-11-01T02:56:00.358Z,12.28
2023-11-01T02:57:00.348Z,12.29
2023-11-01T02:58:00.333Z,12.27
2023-11-01T02:59:00.328Z,12.28
2023-11-01T03:00:00.325Z,12.24
2023-11-01T03:01:00.305Z,12.28
2023-11-01T03:02:00.280Z,12.28
2023-11-01T03:03:00.387Z,12.31
2023-11-01T03:04:00.293Z,12.29
2023-11-01T03:05:00.269Z,12.27
2023-11-01T03:06:00.237Z,12.32
2023-11-01T03:07:00.232Z,12.28
2023-11-01T03:08:00.210Z,12.27
2023-11-01T03:09:00.191Z,12.25
2023-11-01T03:10:00.208Z,12.24
2023-11-01T03:11:00.164Z,12.20
2023-11-01T03:12:00.184Z,12.21
2023-11-01T03:13:00.144Z,12.22
2023-11-01T03:14:00.148Z,12.20
2023-11-01T03:15:00.140Z,12.15
2023-11-01T03:16:00.140Z,12.12
2023-11-01T03:17:00.083Z,12.17
2023-11-01T03:18:00.153Z,12.13
2023-11-01T03:19:00.103Z,12.18
2023-11-01T03:20:00.051Z,12.13
2023-11-01T03:21:00.056Z,12.13
2023-11-01T03:22:00.026Z,12.13
2023-11-01T03:23:00.003Z,12.12
2023-11-01T03:24:00.009Z,12.18
2023-11-01T03:24:59.989Z,12.13
2023-11-01T03:25:59.969Z,12.13
2023-11-01T03:26:59.951Z,12.13
2023-11-01T03:27:59.937Z,12.12
2023-11-01T03:28:59.943Z,12.17
2023-11-01T03:29:59.917Z,12.10
2023-11-01T03:30:59.945Z,12.12
2023-11-01T03:31:59.889Z,12.13
2023-11-01T03:32:59.994Z,12.15
2023-11-01T03:33:59.870Z,12.18
2023-11-01T03:34:59.881Z,12.17
2023-11-01T03:35:59.828Z,12.21
2023-11-01T03:36:59.815Z,12.17
2023-11-01T03:37:59.823Z,12.17
2023-11-01T03:38:59.801Z,12.17
2023-11-01T03:39:59.794Z,12.18
2023-11-01T03:40:59.758Z,12.15
2023-11-01T03:41:59.743Z,12.17
2023-11-01T03:42:59.753Z,12.17
2023-11-01T03:43:59.719Z,12.15
2023-11-01T03:44:59.712Z,12.17
2023-11-01T03:45:59.704Z,12.18
2023-11-01T03:46:59.687Z,12.18
2023-11-01T03:47:59.824Z,12.15
2023-11-01T03:48:59.653Z,12.15
2023-11-01T03:49:59.639Z,12.18
2023-11-01T03:50:59.644Z,12.12
2023-11-01T03:51:59.609Z,12.17
2023-11-01T03:52:59.614Z,12.17
2023-11-01T03:53:59.587Z,12.22
2023-11-01T03:54:59.585Z,12.18
2023-11-01T03:55:59.559Z,12.18
2023-11-01T03:56:59.561Z,12.17
2023-11-01T03:57:59.552Z,12.17
2023-11-01T03:58:59.548Z,12.15
2023-11-01T03:59:59.537Z,12.13
2023-11-01T04:00:59.488Z,12.17
2023-11-01T04:01:59.511Z,12.13
2023-11-01T04:02:59.568Z,12.13
2023-11-01T04:03:59.488Z,12.10
2023-11-01T04:04:59.448Z,12.18
2023-11-01T04:05:59.425Z,12.13
2023-11-01T04:06:59.451Z,12.18
2023-11-01T04:07:59.432Z,12.20
2023-11-01T04:08:59.382Z,12.18
2023-11-01T04:09:59.369Z,12.20
2023-11-01T04:10:59.386Z,12.21
2023-11-01T04:11:59.389Z,12.22
2023-11-01T04:12:59.353Z,12.24
2023-11-01T04:13:59.312Z,12.29
2023-11-01T04:14:59.306Z,12.29
2023-11-01T04:15:59.328Z,12.36
2023-11-01T04:16:59.279Z,12.32
2023-11-01T04:18:00.963Z,12.31
2023-11-01T04:18:59.255Z,12.35
2023-11-01T04:19:59.235Z,12.36
2023-11-01T04:20:59.232Z,12.40
2023-11-01T04:21:59.212Z,12.42
2023-11-01T04:22:59.217Z,12.45
2023-11-01T04:23:59.177Z,12.45
2023-11-01T04:24:59.180Z,12.47
2023-11-01T04:25:59.165Z,12.46
2023-11-01T04:26:59.135Z,12.53
2023-11-01T04:27:59.122Z,12.46
2023-11-01T04:28:59.108Z,12.53
2023-11-01T04:29:59.112Z,12.54
2023-11-01T04:30:59.086Z,12.53
2023-11-01T04:31:59.096Z,12.54
2023-11-01T04:32:59.118Z,12.57
2023-11-01T04:33:59.071Z,12.58
2023-11-01T04:34:59.045Z,12.57
2023-11-01T04:35:59.020Z,12.58
2023-11-01T04:36:59.010Z,12.57
2023-11-01T04:37:58.988Z,12.58
2023-11-01T04:38:58.999Z,12.60
2023-11-01T04:39:58.993Z,12.61
2023-11-01T04:40:58.944Z,12.62
2023-11-01T04:41:58.931Z,12.60
2023-11-01T04:42:58.922Z,12.67
2023-11-01T04:43:58.924Z,12.61
2023-11-01T04:44:58.906Z,12.64
2023-11-01T04:45:58.881Z,12.65
2023-11-01T04:46:58.867Z,12.64
2023-11-01T04:47:58.902Z,12.64
2023-11-01T04:48:58.864Z,12.67
2023-11-01T04:49:58.825Z,12.67
2023-11-01T04:50:58.813Z,12.72
2023-11-01T04:51:58.823Z,12.68
2023-11-01T04:52:58.904Z,12.73
2023-11-01T04:53:58.785Z,12.73
2023-11-01T04:54:58.780Z,12.73
2023-11-01T04:55:58.755Z,12.70
2023-11-01T04:56:58.730Z,12.72
2023-11-01T04:57:58.722Z,12.70
2023-11-01T04:58:58.735Z,12.72
2023-11-01T04:59:58.691Z,12.76
2023-11-01T05:00:58.675Z,12.78
2023-11-01T05:01:58.662Z,12.78
2023-11-01T05:02:58.734Z,12.75
2023-11-01T05:03:58.668Z,12.78
2023-11-01T05:04:58.624Z,12.76
2023-11-01T05:05:58.678Z,12.80
2023-11-01T05:06:58.597Z,12.80
2023-11-01T05:07:58.596Z,12.83
2023-11-01T05:08:58.588Z,12.80
2023-11-01T05:09:58.558Z,12.79
2023-11-01T05:10:58.653Z,12.79
2023-11-01T05:11:58.532Z,12.80
2023-11-01T05:12:58.543Z,12.76
2023-11-01T05:13:58.508Z,12.80
2023-11-01T05:14:58.490Z,12.79
2023-11-01T05:15:58.477Z,12.78
2023-11-01T05:16:58.466Z,12.79
2023-11-01T05:17:58.541Z,12.83
2023-11-01T05:18:58.448Z,12.80
2023-11-01T05:19:58.427Z,12.80
2023-11-01T05:20:58.422Z,12.83
2023-11-01T05:21:58.414Z,12.82
2023-11-01T05:22:58.420Z,12.82
2023-11-01T05:23:58.367Z,12.79
2023-11-01T05:24:58.354Z,12.82
2023-11-01T05:25:58.342Z,12.80
2023-11-01T05:26:58.371Z,12.79
2023-11-01T05:27:58.375Z,12.82
2023-11-01T05:28:58.322Z,12.78
2023-11-01T05:29:58.291Z,12.76
2023-11-01T05:30:58.306Z,12.75
2023-11-01T05:31:58.299Z,12.78
2023-11-01T05:32:58.419Z,12.76
2023-11-01T05:33:58.282Z,12.78
2023-11-01T05:34:58.230Z,12.72
2023-11-01T05:35:58.291Z,12.78
2023-11-01T05:36:58.306Z,12.78
2023-11-01T05:37:58.200Z,12.72
2023-11-01T05:38:58.185Z,12.70
2023-11-01T05:39:58.181Z,12.70
2023-11-01T05:40:58.165Z,12.73
2023-11-01T05:41:58.167Z,12.72
2023-11-01T05:42:58.136Z,12.70
2023-11-01T05:43:58.107Z,12.72
2023-11-01T05:44:58.088Z,12.72
2023-11-01T05:45:58.125Z,12.76
2023-11-01T05:46:58.066Z,12.72
2023-11-01T05:47:58.136Z,12.64
2023-11-01T05:48:58.037Z,12.67
2023-11-01T05:49:58.025Z,12.70
2023-11-01T05:50:58.054Z,12.67
2023-11-01T05:51:57.999Z,12.72
2023-11-01T05:52:58.139Z,12.67
2023-11-01T05:53:58.048Z,12.72
2023-11-01T05:55:07.151Z,12.72
2023-11-01T05:56:04.789Z,12.73
2023-11-01T05:56:57.937Z,12.76
2023-11-01T05:57:57.928Z,12.76
2023-11-01T05:58:57.934Z,12.76
2023-11-01T05:59:57.909Z,12.78
2023-11-01T06:00:57.892Z,12.80
2023-11-01T06:01:57.877Z,12.76
2023-11-01T06:02:58.017Z,12.78
2023-11-01T06:03:58.068Z,12.73
2023-11-01T06:04:57.896Z,12.70
2023-11-01T06:05:57.810Z,12.70
2023-11-01T06:06:57.803Z,12.70
2023-11-01T06:07:57.788Z,12.70
2023-11-01T06:08:57.768Z,12.72
2023-11-01T06:09:57.787Z,12.70
2023-11-01T06:10:57.752Z,12.70
2023-11-01T06:11:57.730Z,12.67
2023-11-01T06:12:57.745Z,12.67
2023-11-01T06:13:57.720Z,12.68
2023-11-01T06:14:57.762Z,12.68
2023-11-01T06:15:57.677Z,12.68
2023-11-01T06:16:57.682Z,12.68
2023-11-01T06:17:57.727Z,12.72
2023-11-01T06:18:57.654Z,12.70
2023-11-01T06:19:57.629Z,12.72
2023-11-01T06:20:57.628Z,12.76
2023-11-01T06:21:57.594Z,12.78
2023-11-01T06:22:57.584Z,12.75
2023-11-01T06:23:57.584Z,12.79
2023-11-01T06:24:57.554Z,12.78
2023-11-01T06:25:57.540Z,12.76
2023-11-01T06:26:57.529Z,12.76
2023-11-01T06:27:57.530Z,12.80
2023-11-01T06:28:57.540Z,12.82
2023-11-01T06:29:57.509Z,12.85
2023-11-01T06:30:57.498Z,12.82
2023-11-01T06:31:57.466Z,12.82
2023-11-01T06:32:57.717Z,12.85
2023-11-01T06:33:57.521Z,12.80
2023-11-01T06:34:57.420Z,12.79
2023-11-01T06:35:57.434Z,12.79
2023-11-01T06:36:57.395Z,12.83
2023-11-01T06:37:57.397Z,12.78
2023-11-01T06:38:57.401Z,12.82
2023-11-01T06:39:57.360Z,12.80
2023-11-01T06:40:57.341Z,12.82
2023-11-01T06:41:57.374Z,12.83
2023-11-01T06:42:57.331Z,12.80
2023-11-01T06:43:57.304Z,12.82
2023-11-01T06:44:57.311Z,12.82
2023-11-01T06:45:57.286Z,12.83
2023-11-01T06:46:57.363Z,12.86
2023-11-01T06:47:57.343Z,12.85
2023-11-01T06:48:57.239Z,12.86
2023-11-01T06:49:57.245Z,12.90
2023-11-01T06:50:57.278Z,12.87
2023-11-01T06:51:57.228Z,12.93
2023-11-01T06:52:57.182Z,12.95
2023-11-01T06:53:57.186Z,12.97
2023-11-01T06:54:57.152Z,12.95
2023-11-01T06:55:57.146Z,13.01
2023-11-01T06:56:57.171Z,13.08
2023-11-01T06:57:57.153Z,13.09
2023-11-01T06:58:57.110Z,13.05
2023-11-01T06:59:57.155Z,13.11
2023-11-01T07:00:57.083Z,13.13
2023-11-01T07:01:57.075Z,13.16
2023-11-01T07:02:57.098Z,13.15
2023-11-01T07:03:57.118Z,13.18
2023-11-01T07:04:57.031Z,13.16
2023-11-01T07:05:57.067Z,13.15
2023-11-01T07:06:57.010Z,13.12
2023-11-01T07:07:56.982Z,13.16
2023-11-01T07:08:57.006Z,13.19
2023-11-01T07:09:56.957Z,13.18
2023-11-01T07:10:56.994Z,13.13
2023-11-01T07:11:56.989Z,13.20
2023-11-01T07:12:56.917Z,13.18
2023-11-01T07:13:56.902Z,13.18
2023-11-01T07:14:56.923Z,13.19
2023-11-01T07:15:56.970Z,13.16
2023-11-01T07:16:56.858Z,13.22
2023-11-01T07:17:56.907Z,13.20
2023-11-01T07:18:56.862Z,13.20
2023-11-01T07:19:56.853Z,13.19
2023-11-01T07:20:56.900Z,13.20
2023-11-01T07:21:56.867Z,13.22
2023-11-01T07:22:56.809Z,13.15
2023-11-01T07:23:56.835Z,13.18
2023-11-01T07:24:56.770Z,13.23
2023-11-01T07:25:56.760Z,13.25
2023-11-01T07:26:56.770Z,13.25
2023-11-01T07:27:56.720Z,13.25
2023-11-01T07:28:56.702Z,13.22
2023-11-01T07:29:56.762Z,13.31
2023-11-01T07:30:56.674Z,13.27
2023-11-01T07:31:56.669Z,13.33
2023-11-01T07:32:56.712Z,13.27
2023-11-01T07:33:56.641Z,13.30
2023-11-01T07:34:56.712Z,13.28
2023-11-01T07:35:56.738Z,13.23
2023-11-01T07:36:56.606Z,13.30
2023-11-01T07:37:56.582Z,13.27
2023-11-01T07:38:56.582Z,13.27
2023-11-01T07:39:56.597Z,13.30
2023-11-01T07:40:56.541Z,13.37
2023-11-01T07:41:56.552Z,13.28
2023-11-01T07:42:56.514Z,13.31
2023-11-01T07:43:56.520Z,13.30
2023-11-01T07:44:56.591Z,13.35
2023-11-01T07:45:56.511Z,13.42
2023-11-01T07:46:56.476Z,13.41
2023-11-01T07:47:56.493Z,13.42
2023-11-01T07:48:56.453Z,13.44
2023-11-01T07:49:56.449Z,13.46
2023-11-01T07:50:56.455Z,13.53
2023-11-01T07:51:56.399Z,13.57
2023-11-01T07:52:56.380Z,13.60
2023-11-01T07:53:56.426Z,13.75
2023-11-01T07:54:56.354Z,13.78
2023-11-01T07:55:56.347Z,13.83
2023-11-01T07:56:56.348Z,13.95
2023-11-01T07:57:56.336Z,14.00
2023-11-01T07:58:56.324Z,14.04
2023-11-01T07:59:56.338Z,14.15
2023-11-01T08:00:56.282Z,14.22
2023-11-01T08:01:57.510Z,14.20
2023-11-01T08:02:56.363Z,14.23
2023-11-01T08:03:56.467Z,14.41
2023-11-01T08:04:56.245Z,14.48
2023-11-01T08:05:56.252Z,14.50
2023-11-01T08:06:56.220Z,14.79
2023-11-01T08:07:56.205Z,15.00
2023-11-01T08:08:56.170Z,14.97
2023-11-01T08:09:56.163Z,14.85
2023-11-01T08:10:56.148Z,14.82
2023-11-01T08:11:56.169Z,14.89
2023-11-01T08:12:56.135Z,15.07
2023-11-01T08:13:56.158Z,15.43
2023-11-01T08:14:56.108Z,15.24
2023-11-01T08:15:56.113Z,15.35
2023-11-01T08:16:56.188Z,15.54
2023-11-01T08:17:56.097Z,15.79
2023-11-01T08:18:56.036Z,15.82
2023-11-01T08:19:56.029Z,15.76
2023-11-01T08:20:56.059Z,15.98
2023-11-01T08:21:56.010Z,16.17
2023-11-01T08:22:56.026Z,16.21
2023-11-01T08:23:56.038Z,16.49
2023-11-01T08:24:55.957Z,16.90
2023-11-01T08:25:55.993Z,16.91
2023-11-01T08:26:55.964Z,17.15
2023-11-01T08:27:55.918Z,17.27
2023-11-01T08:28:55.904Z,17.49
2023-11-01T08:29:55.939Z,17.24
2023-11-01T08:30:55.895Z,16.93
2023-11-01T08:31:55.903Z,16.86
2023-11-01T08:32:55.912Z,17.56
2023-11-01T08:33:55.969Z,17.71
2023-11-01T08:34:55.825Z,18.00
2023-11-01T08:35:55.868Z,17.60
2023-11-01T08:36:55.799Z,17.41
2023-11-01T08:37:55.786Z,17.52
2023-11-01T08:38:55.813Z,17.65
2023-11-01T08:39:55.775Z,17.39
2023-11-01T08:40:55.765Z,17.02
2023-11-01T08:41:55.796Z,16.54
2023-11-01T08:42:55.727Z,16.16
2023-11-01T08:43:55.713Z,15.84
2023-11-01T08:44:55.747Z,15.58
2023-11-01T08:45:55.691Z,15.18
2023-11-01T08:46:55.665Z,15.02
2023-11-01T08:47:55.760Z,15.11
2023-11-01T08:48:55.638Z,15.18
2023-11-01T08:49:55.646Z,14.97
2023-11-01T08:50:55.626Z,14.84
2023-11-01T08:51:55.600Z,14.85
2023-11-01T08:52:55.628Z,14.78
2023-11-01T08:53:55.602Z,14.81
2023-11-01T08:54:55.595Z,14.79
2023-11-01T08:55:55.547Z,15.03
2023-11-01T08:56:55.630Z,14.89
2023-11-01T08:57:55.517Z,14.78
2023-11-01T08:58:55.524Z,14.70
2023-11-01T08:59:55.560Z,14.65
2023-11-01T09:00:56.978Z,14.53
2023-11-01T09:02:05.027Z,14.58
2023-11-01T09:02:55.524Z,14.50
2023-11-01T09:03:55.543Z,14.51
2023-11-01T09:04:55.425Z,14.54
2023-11-01T09:05:55.433Z,14.63
2023-11-01T09:06:55.398Z,14.65
2023-11-01T09:07:55.403Z,14.58
2023-11-01T09:08:55.413Z,14.62
2023-11-01T09:09:56.499Z,14.54
2023-11-01T09:10:55.370Z,14.58
2023-11-01T09:11:55.369Z,14.72
2023-11-01T09:12:55.369Z,14.72
2023-11-01T09:13:55.310Z,14.78
2023-11-01T09:14:55.320Z,15.03
2023-11-01T09:15:55.275Z,14.97
2023-11-01T09:16:55.306Z,14.82
2023-11-01T09:17:55.319Z,14.88
2023-11-01T09:18:55.229Z,14.86
2023-11-01T09:19:55.217Z,14.84
2023-11-01T09:20:55.249Z,14.81
2023-11-01T09:21:55.215Z,14.86
2023-11-01T09:22:55.198Z,14.92
2023-11-01T09:23:55.189Z,14.89
2023-11-01T09:24:55.152Z,14.82
2023-11-01T09:25:55.142Z,14.77
2023-11-01T09:26:55.180Z,14.78
2023-11-01T09:27:55.127Z,14.84
2023-11-01T09:28:55.099Z,14.81
2023-11-01T09:29:55.146Z,14.82
2023-11-01T09:30:55.071Z,14.94
2023-11-01T09:31:55.093Z,14.94
2023-11-01T09:32:55.221Z,15.15
2023-11-01T09:33:55.149Z,15.15
2023-11-01T09:34:55.014Z,15.24
2023-11-01T09:35:55.041Z,15.40
2023-11-01T09:36:55.004Z,16.15
2023-11-01T09:37:54.974Z,16.42
2023-11-01T09:38:55.034Z,16.83
2023-11-01T09:39:54.957Z,17.19
2023-11-01T09:40:54.952Z,17.64
2023-11-01T09:41:54.932Z,17.79
2023-11-01T09:42:54.949Z,17.68
2023-11-01T09:43:54.907Z,17.27
2023-11-01T09:44:54.946Z,17.26
2023-11-01T09:45:54.890Z,17.16
2023-11-01T09:46:54.944Z,17.01
2023-11-01T09:47:54.896Z,16.96
2023-11-01T09:48:54.830Z,17.65
2023-11-01T09:49:54.850Z,17.89
2023-11-01T09:50:54.839Z,18.20
2023-11-01T09:51:54.799Z,18.18
2023-11-01T09:52:54.789Z,18.01
2023-11-01T09:53:54.810Z,18.07
2023-11-01T09:54:54.766Z,17.63
2023-11-01T09:55:54.754Z,16.93
2023-11-01T09:56:54.765Z,16.47
2023-11-01T09:57:54.710Z,16.64
2023-11-01T09:58:54.719Z,17.16
2023-11-01T09:59:54.751Z,17.22
2023-11-01T10:00:54.704Z,17.71
2023-11-01T10:01:54.670Z,18.01
2023-11-01T10:02:54.713Z,18.40
2023-11-01T10:03:54.650Z,18.73
2023-11-01T10:04:54.681Z,18.68
2023-11-01T10:05:54.654Z,18.23
2023-11-01T10:06:54.607Z,17.83
2023-11-01T10:07:54.579Z,17.63
2023-11-01T10:08:54.648Z,17.63
2023-11-01T10:09:54.568Z,17.54
2023-11-01T10:10:54.540Z,16.83
2023-11-01T10:11:54.562Z,16.84
2023-11-01T10:12:54.530Z,16.99
2023-11-01T10:13:54.535Z,17.12
2023-11-01T10:14:54.568Z,17.09
2023-11-01T10:15:54.522Z,17.15
2023-11-01T10:16:54.462Z,17.14
2023-11-01T10:17:54.506Z,17.33
2023-11-01T10:18:54.463Z,17.68
2023-11-01T10:19:54.422Z,17.68
2023-11-01T10:20:54.432Z,17.82
2023-11-01T10:21:54.395Z,18.13
2023-11-01T10:22:54.380Z,17.85
2023-11-01T10:23:54.442Z,17.44
2023-11-01T10:24:54.357Z,17.44
2023-11-01T10:25:54.347Z,17.24
2023-11-01T10:26:54.362Z,17.44
2023-11-01T10:27:54.314Z,17.65
2023-11-01T10:28:54.326Z,18.20
2023-11-01T10:29:54.430Z,18.10
2023-11-01T10:30:54.298Z,18.50
2023-11-01T10:31:54.265Z,19.12
2023-11-01T10:32:54.358Z,18.77
2023-11-01T10:33:54.660Z,18.81
2023-11-01T10:34:54.230Z,19.18
2023-11-01T10:35:54.230Z,19.09
2023-11-01T10:36:54.199Z,19.55
2023-11-01T10:37:54.206Z,19.85
2023-11-01T10:38:54.203Z,20.19
2023-11-01T10:39:54.159Z,19.85
2023-11-01T10:40:54.145Z,19.29
2023-11-01T10:41:54.147Z,19.21
2023-11-01T10:42:55.734Z,18.89
2023-11-01T10:43:54.137Z,18.35
2023-11-01T10:44:54.145Z,18.16
2023-11-01T10:45:54.095Z,18.22
2023-11-01T10:46:54.094Z,18.00
2023-11-01T10:47:54.162Z,18.01
2023-11-01T10:48:54.056Z,17.70
2023-11-01T10:49:54.027Z,17.23
2023-11-01T10:50:54.108Z,16.91
2023-11-01T10:51:54.021Z,16.72
2023-11-01T10:52:54.011Z,16.75
2023-11-01T10:53:54.034Z,16.69
2023-11-01T10:54:54.010Z,16.50
2023-11-01T10:55:53.952Z,16.31
2023-11-01T10:56:53.968Z,16.15
2023-11-01T10:57:53.922Z,16.15
2023-11-01T10:58:53.918Z,16.28
2023-11-01T10:59:53.961Z,16.33
2023-11-01T11:00:53.882Z,16.35
2023-11-01T11:01:53.916Z,16.39
2023-11-01T11:02:54.025Z,16.46
2023-11-01T11:03:54.094Z,16.28
2023-11-01T11:04:53.939Z,15.98
2023-11-01T11:05:53.888Z,15.97
2023-11-01T11:06:53.829Z,16.04
2023-11-01T11:07:53.788Z,16.10
2023-11-01T11:08:53.795Z,16.02
2023-11-01T11:09:53.760Z,15.98
2023-11-01T11:10:53.767Z,15.88
2023-11-01T11:11:53.800Z,15.92
2023-11-01T11:12:53.729Z,15.98
2023-11-01T11:13:53.708Z,15.84
2023-11-01T11:14:53.717Z,15.79
2023-11-01T11:15:53.722Z,15.84
2023-11-01T11:16:53.668Z,15.83
2023-11-01T11:17:53.686Z,15.82
2023-11-01T11:18:53.661Z,16.01
2023-11-01T11:19:53.627Z,16.13
2023-11-01T11:20:53.775Z,16.29
2023-11-01T11:21:53.646Z,16.32
2023-11-01T11:22:53.593Z,16.29
2023-11-01T11:23:53.673Z,16.12
2023-11-01T11:24:53.949Z,16.16
2023-11-01T11:25:53.577Z,16.12
2023-11-01T11:26:53.550Z,16.09
2023-11-01T11:27:53.779Z,16.24
2023-11-01T11:28:53.507Z,16.49
2023-11-01T11:29:53.526Z,16.53
2023-11-01T11:30:53.495Z,16.61
2023-11-01T11:31:53.504Z,16.65
2023-11-01T11:32:53.530Z,16.75
2023-11-01T11:33:53.434Z,16.72
2023-11-01T11:34:53.509Z,16.68
2023-11-01T11:35:53.486Z,16.69
2023-11-01T11:36:53.398Z,16.54
2023-11-01T11:37:53.392Z,16.54
2023-11-01T11:38:53.425Z,16.56
2023-11-01T11:39:53.375Z,16.41
2023-11-01T11:40:53.343Z,16.29
2023-11-01T11:41:53.380Z,16.12
2023-11-01T11:42:53.323Z,16.02
2023-11-01T11:43:53.304Z,16.08
2023-11-01T11:44:53.332Z,16.08
2023-11-01T11:45:53.327Z,15.94
2023-11-01T11:46:53.268Z,15.88
2023-11-01T11:47:53.339Z,15.95
2023-11-01T11:48:53.253Z,15.97
2023-11-01T11:49:53.237Z,16.08
2023-11-01T11:50:53.287Z,16.10
2023-11-01T11:51:53.246Z,16.05
2023-11-01T11:52:53.188Z,16.08
2023-11-01T11:53:53.263Z,16.15
2023-11-01T11:54:53.158Z,16.28
2023-11-01T11:55:53.142Z,16.26
2023-11-01T11:56:53.145Z,16.32
2023-11-01T11:57:53.111Z,16.38
2023-11-01T11:58:53.117Z,16.43
2023-11-01T11:59:53.097Z,16.46
2023-11-01T12:00:53.077Z,16.26
2023-11-01T12:01:53.165Z,16.32
2023-11-01T12:02:53.114Z,16.39
2023-11-01T12:03:53.086Z,16.47
2023-11-01T12:04:53.027Z,16.46
2023-11-01T12:05:53.032Z,16.35
2023-11-01T12:06:53.015Z,16.35
2023-11-01T12:07:52.996Z,16.54
2023-11-01T12:08:52.989Z,16.71
2023-11-01T12:09:52.954Z,16.79
2023-11-01T12:10:52.951Z,16.81
2023-11-01T12:11:52.972Z,16.65
2023-11-01T12:12:52.927Z,16.71
2023-11-01T12:13:52.896Z,16.83
2023-11-01T12:14:52.950Z,16.84
2023-11-01T12:15:52.866Z,16.97
2023-11-01T12:16:52.958Z,17.16
2023-11-01T12:17:52.898Z,17.27
2023-11-01T12:18:52.829Z,17.36
2023-11-01T12:19:52.814Z,17.52
2023-11-01T12:20:52.838Z,17.63
2023-11-01T12:21:52.808Z,17.60
2023-11-01T12:22:52.814Z,17.36
2023-11-01T12:23:52.789Z,17.01
2023-11-01T12:24:52.757Z,17.08
2023-11-01T12:25:52.735Z,16.79
2023-11-01T12:26:52.756Z,16.79
2023-11-01T12:27:52.707Z,16.78
2023-11-01T12:28:52.700Z,16.58
2023-11-01T12:29:52.729Z,16.43
2023-11-01T12:30:52.668Z,16.39
2023-11-01T12:31:52.671Z,16.42
2023-11-01T12:32:52.707Z,16.43
2023-11-01T12:33:52.691Z,16.43
2023-11-01T12:34:52.616Z,16.38
2023-11-01T12:35:52.657Z,16.39
2023-11-01T12:36:52.608Z,16.57
2023-11-01T12:37:52.608Z,16.61
2023-11-01T12:38:52.591Z,16.68
2023-11-01T12:39:52.546Z,16.65
2023-11-01T12:40:52.550Z,16.60
2023-11-01T12:41:52.538Z,16.75
2023-11-01T12:42:52.531Z,16.87
2023-11-01T12:43:52.511Z,16.72
2023-11-01T12:44:52.496Z,16.72
2023-11-01T12:45:52.486Z,16.86
2023-11-01T12:46:52.485Z,17.29
2023-11-01T12:47:52.612Z,17.33
2023-11-01T12:48:52.498Z,17.04
2023-11-01T12:49:52.426Z,17.04
2023-11-01T12:50:52.419Z,17.08
2023-11-01T12:51:52.376Z,17.01